sensor_id;sensor_type;location;lat;lon;timestamp;P1;P2;P0
65012;PMS5003;51715;39.432;-77.518;2023-04-26T00:01:05;5;5;
65012;PMS5003;51715;39.432;-77.518;2023-04-26T00:03:33;8;6;
65012;PMS5003;51715;39.432;-77.518;2023-04-26T00:06:03;5;5;
65012;PMS5003;51715;39.432;-77.518;2023-04-26T00:08:31;5;5;
65012;PMS5003;51715;39.432;-77.518;2023-04-26T00:11:00;10;10;
65012;PMS5003;51715;39.432;-77.518;2023-04-26T00:13:29;8;6;
65012;PMS5003;51715;39.432;-77.518;2023-04-26T00:15:57;7;7;
65012;PMS5003;51715;39.432;-77.518;2023-04-26T00:18:25;6;6;
65012;PMS5003;51715;39.432;-77.518;2023-04-26T00:20:53;6;6;
65012;PMS5003;51715;39.432;-77.518;2023-04-26T00:23:22;5;5;
65012;PMS5003;51715;39.432;-77.518;2023-04-26T00:25:50;5;5;
65012;PMS5003;51715;39.432;-77.518;2023-04-26T00:28:18;9;7;
65012;PMS5003;51715;39.432;-77.518;2023-04-26T00:30:47;8;6;
65012;PMS5003;51715;39.432;-77.518;2023-04-26T00:33:15;7;6;
65012;PMS5003;51715;39.432;-77.518;2023-04-26T00:35:45;9;9;
65012;PMS5003;51715;39.432;-77.518;2023-04-26T00:38:13;8;6;
65012;PMS5003;51715;39.432;-77.518;2023-04-26T00:40:41;7;7;
65012;PMS5003;51715;39.432;-77.518;2023-04-26T00:43:09;4;4;
65012;PMS5003;51715;39.432;-77.518;2023-04-26T00:45:38;7;7;
65012;PMS5003;51715;39.432;-77.518;2023-04-26T00:48:06;9;9;
65012;PMS5003;51715;39.432;-77.518;2023-04-26T00:50:35;10;10;
65012;PMS5003;51715;39.432;-77.518;2023-04-26T00:53:05;13;11;
65012;PMS5003;51715;39.432;-77.518;2023-04-26T00:55:34;9;9;
65012;PMS5003;51715;39.432;-77.518;2023-04-26T00:58:03;9;9;
65012;PMS5003;51715;39.432;-77.518;2023-04-26T01:00:33;14;14;
65012;PMS5003;51715;39.432;-77.518;2023-04-26T01:03:01;11;9;
65012;PMS5003;51715;39.432;-77.518;2023-04-26T01:05:31;9;9;
65012;PMS5003;51715;39.432;-77.518;2023-04-26T01:07:59;11;11;
65012;PMS5003;51715;39.432;-77.518;2023-04-26T01:10:29;8;8;
65012;PMS5003;51715;39.432;-77.518;2023-04-26T01:12:59;8;7;
65012;PMS5003;51715;39.432;-77.518;2023-04-26T01:15:28;7;7;
65012;PMS5003;51715;39.432;-77.518;2023-04-26T01:17:57;6;6;
65012;PMS5003;51715;39.432;-77.518;2023-04-26T01:20:25;11;9;
65012;PMS5003;51715;39.432;-77.518;2023-04-26T01:22:52;9;9;
65012;PMS5003;51715;39.432;-77.518;2023-04-26T01:25:21;8;8;
65012;PMS5003;51715;39.432;-77.518;2023-04-26T01:27:49;9;9;
65012;PMS5003;51715;39.432;-77.518;2023-04-26T01:30:18;7;7;
65012;PMS5003;51715;39.432;-77.518;2023-04-26T01:32:46;12;9;
65012;PMS5003;51715;39.432;-77.518;2023-04-26T01:35:15;8;7;
65012;PMS5003;51715;39.432;-77.518;2023-04-26T01:37:44;11;9;
65012;PMS5003;51715;39.432;-77.518;2023-04-26T01:40:13;13;11;
65012;PMS5003;51715;39.432;-77.518;2023-04-26T01:42:42;9;9;
65012;PMS5003;51715;39.432;-77.518;2023-04-26T01:45:11;12;10;
65012;PMS5003;51715;39.432;-77.518;2023-04-26T01:47:39;15;14;
65012;PMS5003;51715;39.432;-77.518;2023-04-26T01:50:09;15;15;
65012;PMS5003;51715;39.432;-77.518;2023-04-26T01:52:38;12;11;
65012;PMS5003;51715;39.432;-77.518;2023-04-26T01:55:07;14;12;
65012;PMS5003;51715;39.432;-77.518;2023-04-26T01:57:37;14;14;
65012;PMS5003;51715;39.432;-77.518;2023-04-26T02:00:06;11;11;
65012;PMS5003;51715;39.432;-77.518;2023-04-26T02:02:35;14;11;
65012;PMS5003;51715;39.432;-77.518;2023-04-26T02:05:04;13;11;
65012;PMS5003;51715;39.432;-77.518;2023-04-26T02:07:32;9;9;
65012;PMS5003;51715;39.432;-77.518;2023-04-26T02:10:00;12;11;
65012;PMS5003;51715;39.432;-77.518;2023-04-26T02:12:28;9;9;
65012;PMS5003;51715;39.432;-77.518;2023-04-26T02:14:57;8;8;
65012;PMS5003;51715;39.432;-77.518;2023-04-26T02:17:26;9;9;
65012;PMS5003;51715;39.432;-77.518;2023-04-26T02:19:55;9;9;
65012;PMS5003;51715;39.432;-77.518;2023-04-26T02:22:23;9;9;
65012;PMS5003;51715;39.432;-77.518;2023-04-26T02:24:52;12;10;
65012;PMS5003;51715;39.432;-77.518;2023-04-26T02:27:20;9;9;
65012;PMS5003;51715;39.432;-77.518;2023-04-26T02:29:49;10;9;
65012;PMS5003;51715;39.432;-77.518;2023-04-26T02:32:17;8;8;
65012;PMS5003;51715;39.432;-77.518;2023-04-26T02:34:46;10;10;
65012;PMS5003;51715;39.432;-77.518;2023-04-26T02:37:15;9;8;
65012;PMS5003;51715;39.432;-77.518;2023-04-26T02:39:44;12;11;
65012;PMS5003;51715;39.432;-77.518;2023-04-26T02:42:16;11;11;
65012;PMS5003;51715;39.432;-77.518;2023-04-26T02:44:45;12;12;
65012;PMS5003;51715;39.432;-77.518;2023-04-26T02:47:14;8;8;
65012;PMS5003;51715;39.432;-77.518;2023-04-26T02:49:42;11;11;
65012;PMS5003;51715;39.432;-77.518;2023-04-26T02:52:10;10;10;
65012;PMS5003;51715;39.432;-77.518;2023-04-26T02:54:39;11;11;
65012;PMS5003;51715;39.432;-77.518;2023-04-26T02:57:08;10;10;
65012;PMS5003;51715;39.432;-77.518;2023-04-26T02:59:37;11;10;
65012;PMS5003;51715;39.432;-77.518;2023-04-26T03:02:06;11;10;
65012;PMS5003;51715;39.432;-77.518;2023-04-26T03:04:34;10;9;
65012;PMS5003;51715;39.432;-77.518;2023-04-26T03:07:04;9;9;
65012;PMS5003;51715;39.432;-77.518;2023-04-26T03:09:32;8;8;
65012;PMS5003;51715;39.432;-77.518;2023-04-26T03:12:00;10;9;
65012;PMS5003;51715;39.432;-77.518;2023-04-26T03:14:29;11;10;
65012;PMS5003;51715;39.432;-77.518;2023-04-26T03:16:57;11;10;
65012;PMS5003;51715;39.432;-77.518;2023-04-26T03:19:25;11;9;
65012;PMS5003;51715;39.432;-77.518;2023-04-26T03:21:53;10;10;
65012;PMS5003;51715;39.432;-77.518;2023-04-26T03:24:22;12;11;
65012;PMS5003;51715;39.432;-77.518;2023-04-26T03:26:50;9;9;
65012;PMS5003;51715;39.432;-77.518;2023-04-26T03:29:19;12;11;
65012;PMS5003;51715;39.432;-77.518;2023-04-26T03:31:47;9;9;
65012;PMS5003;51715;39.432;-77.518;2023-04-26T03:34:15;12;12;
65012;PMS5003;51715;39.432;-77.518;2023-04-26T03:36:44;15;14;
65012;PMS5003;51715;39.432;-77.518;2023-04-26T03:39:13;12;9;
65012;PMS5003;51715;39.432;-77.518;2023-04-26T03:41:42;14;14;
65012;PMS5003;51715;39.432;-77.518;2023-04-26T03:44:11;14;13;
65012;PMS5003;51715;39.432;-77.518;2023-04-26T03:46:39;11;10;
65012;PMS5003;51715;39.432;-77.518;2023-04-26T03:49:08;13;13;
65012;PMS5003;51715;39.432;-77.518;2023-04-26T03:51:36;11;10;
65012;PMS5003;51715;39.432;-77.518;2023-04-26T03:54:04;12;12;
65012;PMS5003;51715;39.432;-77.518;2023-04-26T03:56:33;12;12;
65012;PMS5003;51715;39.432;-77.518;2023-04-26T03:59:00;12;12;
65012;PMS5003;51715;39.432;-77.518;2023-04-26T04:03:58;12;12;
65012;PMS5003;51715;39.432;-77.518;2023-04-26T04:06:27;14;14;
65012;PMS5003;51715;39.432;-77.518;2023-04-26T04:08:55;12;12;
65012;PMS5003;51715;39.432;-77.518;2023-04-26T04:11:23;13;13;
65012;PMS5003;51715;39.432;-77.518;2023-04-26T04:13:51;13;9;
65012;PMS5003;51715;39.432;-77.518;2023-04-26T04:16:19;11;11;
65012;PMS5003;51715;39.432;-77.518;2023-04-26T04:18:48;9;9;
65012;PMS5003;51715;39.432;-77.518;2023-04-26T04:21:16;11;10;
65012;PMS5003;51715;39.432;-77.518;2023-04-26T04:23:45;10;10;
65012;PMS5003;51715;39.432;-77.518;2023-04-26T04:26:13;10;10;
65012;PMS5003;51715;39.432;-77.518;2023-04-26T04:28:42;12;10;
65012;PMS5003;51715;39.432;-77.518;2023-04-26T04:31:10;15;12;
65012;PMS5003;51715;39.432;-77.518;2023-04-26T04:33:38;13;12;
65012;PMS5003;51715;39.432;-77.518;2023-04-26T04:36:08;12;12;
65012;PMS5003;51715;39.432;-77.518;2023-04-26T04:38:36;10;9;
65012;PMS5003;51715;39.432;-77.518;2023-04-26T04:41:05;14;12;
65012;PMS5003;51715;39.432;-77.518;2023-04-26T04:43:33;10;10;
65012;PMS5003;51715;39.432;-77.518;2023-04-26T04:46:01;10;10;
65012;PMS5003;51715;39.432;-77.518;2023-04-26T04:48:28;8;8;
65012;PMS5003;51715;39.432;-77.518;2023-04-26T04:50:57;10;10;
65012;PMS5003;51715;39.432;-77.518;2023-04-26T04:53:26;9;9;
65012;PMS5003;51715;39.432;-77.518;2023-04-26T04:55:54;14;13;
65012;PMS5003;51715;39.432;-77.518;2023-04-26T04:58:23;7;7;
65012;PMS5003;51715;39.432;-77.518;2023-04-26T05:00:51;9;9;
65012;PMS5003;51715;39.432;-77.518;2023-04-26T05:03:19;12;11;
65012;PMS5003;51715;39.432;-77.518;2023-04-26T05:05:47;11;8;
65012;PMS5003;51715;39.432;-77.518;2023-04-26T05:08:15;9;9;
65012;PMS5003;51715;39.432;-77.518;2023-04-26T05:10:44;10;10;
65012;PMS5003;51715;39.432;-77.518;2023-04-26T05:13:12;14;13;
65012;PMS5003;51715;39.432;-77.518;2023-04-26T05:15:40;10;10;
65012;PMS5003;51715;39.432;-77.518;2023-04-26T05:18:07;13;12;
65012;PMS5003;51715;39.432;-77.518;2023-04-26T05:20:36;9;9;
65012;PMS5003;51715;39.432;-77.518;2023-04-26T05:23:05;10;10;
65012;PMS5003;51715;39.432;-77.518;2023-04-26T05:25:35;11;10;
65012;PMS5003;51715;39.432;-77.518;2023-04-26T05:28:04;11;10;
65012;PMS5003;51715;39.432;-77.518;2023-04-26T05:30:32;11;10;
65012;PMS5003;51715;39.432;-77.518;2023-04-26T05:33:01;11;11;
65012;PMS5003;51715;39.432;-77.518;2023-04-26T05:35:30;11;10;
65012;PMS5003;51715;39.432;-77.518;2023-04-26T05:37:58;10;10;
65012;PMS5003;51715;39.432;-77.518;2023-04-26T05:40:27;9;9;
65012;PMS5003;51715;39.432;-77.518;2023-04-26T05:42:55;11;9;
65012;PMS5003;51715;39.432;-77.518;2023-04-26T05:45:24;14;13;
65012;PMS5003;51715;39.432;-77.518;2023-04-26T05:47:52;12;10;
65012;PMS5003;51715;39.432;-77.518;2023-04-26T05:50:25;11;11;
65012;PMS5003;51715;39.432;-77.518;2023-04-26T05:52:54;11;9;
65012;PMS5003;51715;39.432;-77.518;2023-04-26T05:55:22;11;11;
65012;PMS5003;51715;39.432;-77.518;2023-04-26T05:57:50;11;11;
65012;PMS5003;51715;39.432;-77.518;2023-04-26T06:00:18;9;9;
65012;PMS5003;51715;39.432;-77.518;2023-04-26T06:02:47;12;9;
65012;PMS5003;51715;39.432;-77.518;2023-04-26T06:05:16;10;10;
65012;PMS5003;51715;39.432;-77.518;2023-04-26T06:07:44;12;10;
65012;PMS5003;51715;39.432;-77.518;2023-04-26T06:10:13;12;11;
65012;PMS5003;51715;39.432;-77.518;2023-04-26T06:12:43;13;11;
65012;PMS5003;51715;39.432;-77.518;2023-04-26T06:15:11;10;10;
65012;PMS5003;51715;39.432;-77.518;2023-04-26T06:17:40;9;9;
65012;PMS5003;51715;39.432;-77.518;2023-04-26T06:20:08;13;11;
65012;PMS5003;51715;39.432;-77.518;2023-04-26T06:22:37;8;8;
65012;PMS5003;51715;39.432;-77.518;2023-04-26T06:25:06;8;8;
65012;PMS5003;51715;39.432;-77.518;2023-04-26T06:27:35;14;13;
65012;PMS5003;51715;39.432;-77.518;2023-04-26T06:30:07;8;8;
65012;PMS5003;51715;39.432;-77.518;2023-04-26T06:32:37;12;10;
65012;PMS5003;51715;39.432;-77.518;2023-04-26T06:35:07;9;8;
65012;PMS5003;51715;39.432;-77.518;2023-04-26T06:37:36;10;9;
65012;PMS5003;51715;39.432;-77.518;2023-04-26T06:40:04;10;10;
65012;PMS5003;51715;39.432;-77.518;2023-04-26T06:42:34;11;11;
65012;PMS5003;51715;39.432;-77.518;2023-04-26T06:45:02;9;9;
65012;PMS5003;51715;39.432;-77.518;2023-04-26T06:47:32;11;11;
65012;PMS5003;51715;39.432;-77.518;2023-04-26T06:50:00;12;10;
65012;PMS5003;51715;39.432;-77.518;2023-04-26T06:52:29;10;8;
65012;PMS5003;51715;39.432;-77.518;2023-04-26T06:55:00;9;9;
65012;PMS5003;51715;39.432;-77.518;2023-04-26T06:57:29;12;12;
65012;PMS5003;51715;39.432;-77.518;2023-04-26T06:59:57;7;7;
65012;PMS5003;51715;39.432;-77.518;2023-04-26T07:02:25;10;8;
65012;PMS5003;51715;39.432;-77.518;2023-04-26T07:04:53;11;8;
65012;PMS5003;51715;39.432;-77.518;2023-04-26T07:07:21;11;11;
65012;PMS5003;51715;39.432;-77.518;2023-04-26T07:09:49;10;9;
65012;PMS5003;51715;39.432;-77.518;2023-04-26T07:12:18;12;12;
65012;PMS5003;51715;39.432;-77.518;2023-04-26T07:14:46;11;11;
65012;PMS5003;51715;39.432;-77.518;2023-04-26T07:17:15;9;9;
65012;PMS5003;51715;39.432;-77.518;2023-04-26T07:19:44;13;12;
65012;PMS5003;51715;39.432;-77.518;2023-04-26T07:22:11;12;12;
65012;PMS5003;51715;39.432;-77.518;2023-04-26T07:24:40;15;15;
65012;PMS5003;51715;39.432;-77.518;2023-04-26T07:27:08;12;12;
65012;PMS5003;51715;39.432;-77.518;2023-04-26T07:29:37;13;13;
65012;PMS5003;51715;39.432;-77.518;2023-04-26T07:32:06;12;11;
65012;PMS5003;51715;39.432;-77.518;2023-04-26T07:34:34;14;14;
65012;PMS5003;51715;39.432;-77.518;2023-04-26T07:37:03;13;12;
65012;PMS5003;51715;39.432;-77.518;2023-04-26T07:39:31;12;11;
65012;PMS5003;51715;39.432;-77.518;2023-04-26T07:41:59;18;12;
65012;PMS5003;51715;39.432;-77.518;2023-04-26T07:44:27;16;14;
65012;PMS5003;51715;39.432;-77.518;2023-04-26T07:46:56;16;16;
65012;PMS5003;51715;39.432;-77.518;2023-04-26T07:49:26;16;15;
65012;PMS5003;51715;39.432;-77.518;2023-04-26T07:51:54;15;13;
65012;PMS5003;51715;39.432;-77.518;2023-04-26T07:54:21;11;11;
65012;PMS5003;51715;39.432;-77.518;2023-04-26T07:56:50;14;14;
65012;PMS5003;51715;39.432;-77.518;2023-04-26T07:59:19;12;11;
65012;PMS5003;51715;39.432;-77.518;2023-04-26T08:01:47;16;13;
65012;PMS5003;51715;39.432;-77.518;2023-04-26T08:04:16;14;11;
65012;PMS5003;51715;39.432;-77.518;2023-04-26T08:06:45;13;13;
65012;PMS5003;51715;39.432;-77.518;2023-04-26T08:09:13;13;13;
65012;PMS5003;51715;39.432;-77.518;2023-04-26T08:11:41;15;13;
65012;PMS5003;51715;39.432;-77.518;2023-04-26T08:14:09;13;13;
65012;PMS5003;51715;39.432;-77.518;2023-04-26T08:16:37;15;12;
65012;PMS5003;51715;39.432;-77.518;2023-04-26T08:19:06;16;13;
65012;PMS5003;51715;39.432;-77.518;2023-04-26T08:21:34;16;14;
65012;PMS5003;51715;39.432;-77.518;2023-04-26T08:24:02;15;14;
65012;PMS5003;51715;39.432;-77.518;2023-04-26T08:26:31;13;11;
65012;PMS5003;51715;39.432;-77.518;2023-04-26T08:28:59;15;13;
65012;PMS5003;51715;39.432;-77.518;2023-04-26T08:31:28;12;11;
65012;PMS5003;51715;39.432;-77.518;2023-04-26T08:33:56;12;12;
65012;PMS5003;51715;39.432;-77.518;2023-04-26T08:36:25;15;15;
65012;PMS5003;51715;39.432;-77.518;2023-04-26T08:38:53;15;13;
65012;PMS5003;51715;39.432;-77.518;2023-04-26T08:41:21;17;17;
65012;PMS5003;51715;39.432;-77.518;2023-04-26T08:43:50;16;16;
65012;PMS5003;51715;39.432;-77.518;2023-04-26T08:46:19;17;15;
65012;PMS5003;51715;39.432;-77.518;2023-04-26T08:48:49;19;15;
65012;PMS5003;51715;39.432;-77.518;2023-04-26T08:51:23;14;14;
65012;PMS5003;51715;39.432;-77.518;2023-04-26T08:53:53;14;13;
65012;PMS5003;51715;39.432;-77.518;2023-04-26T08:56:23;15;14;
65012;PMS5003;51715;39.432;-77.518;2023-04-26T08:58:53;12;12;
65012;PMS5003;51715;39.432;-77.518;2023-04-26T09:01:21;14;14;
65012;PMS5003;51715;39.432;-77.518;2023-04-26T09:03:51;14;14;
65012;PMS5003;51715;39.432;-77.518;2023-04-26T09:06:22;18;18;
65012;PMS5003;51715;39.432;-77.518;2023-04-26T09:08:50;16;14;
65012;PMS5003;51715;39.432;-77.518;2023-04-26T09:11:20;20;17;
65012;PMS5003;51715;39.432;-77.518;2023-04-26T09:13:48;15;15;
65012;PMS5003;51715;39.432;-77.518;2023-04-26T09:16:16;14;14;
65012;PMS5003;51715;39.432;-77.518;2023-04-26T09:18:48;15;14;
65012;PMS5003;51715;39.432;-77.518;2023-04-26T09:21:17;17;17;
65012;PMS5003;51715;39.432;-77.518;2023-04-26T09:24:02;14;14;
65012;PMS5003;51715;39.432;-77.518;2023-04-26T09:26:31;13;13;
65012;PMS5003;51715;39.432;-77.518;2023-04-26T09:29:10;13;13;
65012;PMS5003;51715;39.432;-77.518;2023-04-26T09:31:41;16;16;
65012;PMS5003;51715;39.432;-77.518;2023-04-26T09:34:11;16;13;
65012;PMS5003;51715;39.432;-77.518;2023-04-26T09:36:47;18;18;
65012;PMS5003;51715;39.432;-77.518;2023-04-26T09:39:28;17;15;
65012;PMS5003;51715;39.432;-77.518;2023-04-26T09:41:58;16;16;
65012;PMS5003;51715;39.432;-77.518;2023-04-26T09:44:27;19;15;
65012;PMS5003;51715;39.432;-77.518;2023-04-26T09:47:10;15;12;
65012;PMS5003;51715;39.432;-77.518;2023-04-26T09:49:43;14;14;
65012;PMS5003;51715;39.432;-77.518;2023-04-26T09:52:12;15;15;
65012;PMS5003;51715;39.432;-77.518;2023-04-26T09:54:42;16;15;
65012;PMS5003;51715;39.432;-77.518;2023-04-26T09:57:13;14;14;
65012;PMS5003;51715;39.432;-77.518;2023-04-26T09:59:44;18;17;
65012;PMS5003;51715;39.432;-77.518;2023-04-26T10:02:15;14;14;
65012;PMS5003;51715;39.432;-77.518;2023-04-26T10:04:46;15;15;
65012;PMS5003;51715;39.432;-77.518;2023-04-26T10:07:17;11;11;
65012;PMS5003;51715;39.432;-77.518;2023-04-26T10:09:47;17;16;
65012;PMS5003;51715;39.432;-77.518;2023-04-26T10:12:16;13;13;
65012;PMS5003;51715;39.432;-77.518;2023-04-26T10:14:46;14;13;
65012;PMS5003;51715;39.432;-77.518;2023-04-26T10:17:14;15;12;
65012;PMS5003;51715;39.432;-77.518;2023-04-26T10:19:44;15;13;
65012;PMS5003;51715;39.432;-77.518;2023-04-26T10:22:19;15;13;
65012;PMS5003;51715;39.432;-77.518;2023-04-26T10:24:50;12;12;
65012;PMS5003;51715;39.432;-77.518;2023-04-26T10:27:47;16;15;
65012;PMS5003;51715;39.432;-77.518;2023-04-26T10:30:17;14;14;
65012;PMS5003;51715;39.432;-77.518;2023-04-26T10:33:16;13;11;
65012;PMS5003;51715;39.432;-77.518;2023-04-26T10:36:04;13;13;
65012;PMS5003;51715;39.432;-77.518;2023-04-26T10:38:33;15;14;
65012;PMS5003;51715;39.432;-77.518;2023-04-26T10:41:34;14;13;
65012;PMS5003;51715;39.432;-77.518;2023-04-26T10:44:36;20;17;
65012;PMS5003;51715;39.432;-77.518;2023-04-26T10:47:19;14;14;
65012;PMS5003;51715;39.432;-77.518;2023-04-26T10:49:48;13;13;
65012;PMS5003;51715;39.432;-77.518;2023-04-26T10:52:18;12;10;
65012;PMS5003;51715;39.432;-77.518;2023-04-26T10:54:47;15;13;
65012;PMS5003;51715;39.432;-77.518;2023-04-26T10:57:17;14;14;
65012;PMS5003;51715;39.432;-77.518;2023-04-26T11:00:37;15;13;
65012;PMS5003;51715;39.432;-77.518;2023-04-26T11:03:08;14;13;
65012;PMS5003;51715;39.432;-77.518;2023-04-26T11:05:37;15;14;
65012;PMS5003;51715;39.432;-77.518;2023-04-26T11:08:15;15;15;
65012;PMS5003;51715;39.432;-77.518;2023-04-26T11:10:49;12;12;
65012;PMS5003;51715;39.432;-77.518;2023-04-26T11:13:23;15;14;
65012;PMS5003;51715;39.432;-77.518;2023-04-26T11:15:52;14;12;
65012;PMS5003;51715;39.432;-77.518;2023-04-26T11:18:25;16;15;
65012;PMS5003;51715;39.432;-77.518;2023-04-26T11:20:54;13;13;
65012;PMS5003;51715;39.432;-77.518;2023-04-26T11:23:23;13;13;
65012;PMS5003;51715;39.432;-77.518;2023-04-26T11:25:56;13;13;
65012;PMS5003;51715;39.432;-77.518;2023-04-26T11:28:24;17;14;
65012;PMS5003;51715;39.432;-77.518;2023-04-26T11:30:52;14;14;
65012;PMS5003;51715;39.432;-77.518;2023-04-26T11:33:20;14;11;
65012;PMS5003;51715;39.432;-77.518;2023-04-26T11:35:50;16;16;
65012;PMS5003;51715;39.432;-77.518;2023-04-26T11:38:21;14;13;
65012;PMS5003;51715;39.432;-77.518;2023-04-26T11:40:54;13;13;
65012;PMS5003;51715;39.432;-77.518;2023-04-26T11:43:28;17;15;
65012;PMS5003;51715;39.432;-77.518;2023-04-26T11:46:01;15;14;
65012;PMS5003;51715;39.432;-77.518;2023-04-26T11:48:29;12;12;
65012;PMS5003;51715;39.432;-77.518;2023-04-26T11:50:59;17;17;
65012;PMS5003;51715;39.432;-77.518;2023-04-26T11:53:37;16;14;
65012;PMS5003;51715;39.432;-77.518;2023-04-26T11:56:12;14;13;
65012;PMS5003;51715;39.432;-77.518;2023-04-26T11:58:43;14;14;
65012;PMS5003;51715;39.432;-77.518;2023-04-26T12:01:19;13;13;
65012;PMS5003;51715;39.432;-77.518;2023-04-26T12:03:49;16;14;
65012;PMS5003;51715;39.432;-77.518;2023-04-26T12:06:18;13;12;
65012;PMS5003;51715;39.432;-77.518;2023-04-26T12:08:51;16;16;
65012;PMS5003;51715;39.432;-77.518;2023-04-26T12:11:19;17;16;
65012;PMS5003;51715;39.432;-77.518;2023-04-26T12:13:48;16;15;
65012;PMS5003;51715;39.432;-77.518;2023-04-26T12:16:15;14;13;
65012;PMS5003;51715;39.432;-77.518;2023-04-26T12:18:48;15;13;
65012;PMS5003;51715;39.432;-77.518;2023-04-26T12:21:17;17;16;
65012;PMS5003;51715;39.432;-77.518;2023-04-26T12:23:46;13;13;
65012;PMS5003;51715;39.432;-77.518;2023-04-26T12:26:15;20;16;
65012;PMS5003;51715;39.432;-77.518;2023-04-26T12:28:45;17;16;
65012;PMS5003;51715;39.432;-77.518;2023-04-26T12:31:14;18;18;
65012;PMS5003;51715;39.432;-77.518;2023-04-26T12:33:41;13;13;
65012;PMS5003;51715;39.432;-77.518;2023-04-26T12:36:10;14;14;
65012;PMS5003;51715;39.432;-77.518;2023-04-26T12:38:40;18;16;
65012;PMS5003;51715;39.432;-77.518;2023-04-26T12:41:09;15;14;
65012;PMS5003;51715;39.432;-77.518;2023-04-26T12:43:37;16;16;
65012;PMS5003;51715;39.432;-77.518;2023-04-26T12:46:05;17;15;
65012;PMS5003;51715;39.432;-77.518;2023-04-26T12:48:34;18;18;
65012;PMS5003;51715;39.432;-77.518;2023-04-26T12:51:03;19;17;
65012;PMS5003;51715;39.432;-77.518;2023-04-26T12:53:32;14;14;
65012;PMS5003;51715;39.432;-77.518;2023-04-26T12:56:01;15;14;
65012;PMS5003;51715;39.432;-77.518;2023-04-26T12:58:30;18;16;
65012;PMS5003;51715;39.432;-77.518;2023-04-26T13:00:59;14;13;
65012;PMS5003;51715;39.432;-77.518;2023-04-26T13:03:27;15;15;
65012;PMS5003;51715;39.432;-77.518;2023-04-26T13:05:56;20;20;
65012;PMS5003;51715;39.432;-77.518;2023-04-26T13:08:24;18;18;
65012;PMS5003;51715;39.432;-77.518;2023-04-26T13:10:53;18;17;
65012;PMS5003;51715;39.432;-77.518;2023-04-26T13:13:22;16;16;
65012;PMS5003;51715;39.432;-77.518;2023-04-26T13:15:52;13;12;
65012;PMS5003;51715;39.432;-77.518;2023-04-26T13:18:20;20;19;
65012;PMS5003;51715;39.432;-77.518;2023-04-26T13:20:49;17;17;
65012;PMS5003;51715;39.432;-77.518;2023-04-26T13:23:18;17;16;
65012;PMS5003;51715;39.432;-77.518;2023-04-26T13:25:46;18;17;
65012;PMS5003;51715;39.432;-77.518;2023-04-26T13:28:14;19;18;
65012;PMS5003;51715;39.432;-77.518;2023-04-26T13:30:42;17;16;
65012;PMS5003;51715;39.432;-77.518;2023-04-26T13:33:11;16;16;
65012;PMS5003;51715;39.432;-77.518;2023-04-26T13:35:40;18;18;
65012;PMS5003;51715;39.432;-77.518;2023-04-26T13:38:08;15;15;
65012;PMS5003;51715;39.432;-77.518;2023-04-26T13:40:36;16;15;
65012;PMS5003;51715;39.432;-77.518;2023-04-26T13:43:05;23;23;
65012;PMS5003;51715;39.432;-77.518;2023-04-26T13:45:48;21;19;
65012;PMS5003;51715;39.432;-77.518;2023-04-26T13:48:17;15;15;
65012;PMS5003;51715;39.432;-77.518;2023-04-26T13:50:45;14;14;
65012;PMS5003;51715;39.432;-77.518;2023-04-26T13:53:14;17;17;
65012;PMS5003;51715;39.432;-77.518;2023-04-26T13:55:42;17;17;
65012;PMS5003;51715;39.432;-77.518;2023-04-26T13:58:10;27;23;
65012;PMS5003;51715;39.432;-77.518;2023-04-26T14:00:39;18;18;
65012;PMS5003;51715;39.432;-77.518;2023-04-26T14:03:09;17;16;
65012;PMS5003;51715;39.432;-77.518;2023-04-26T14:05:38;20;18;
65012;PMS5003;51715;39.432;-77.518;2023-04-26T14:08:07;17;17;
65012;PMS5003;51715;39.432;-77.518;2023-04-26T14:10:35;18;18;
65012;PMS5003;51715;39.432;-77.518;2023-04-26T14:13:05;15;15;
65012;PMS5003;51715;39.432;-77.518;2023-04-26T14:15:33;19;19;
65012;PMS5003;51715;39.432;-77.518;2023-04-26T14:18:02;18;18;
65012;PMS5003;51715;39.432;-77.518;2023-04-26T14:20:30;19;19;
65012;PMS5003;51715;39.432;-77.518;2023-04-26T14:22:59;19;19;
65012;PMS5003;51715;39.432;-77.518;2023-04-26T14:25:28;19;17;
65012;PMS5003;51715;39.432;-77.518;2023-04-26T14:27:57;17;17;
65012;PMS5003;51715;39.432;-77.518;2023-04-26T14:30:24;15;15;
65012;PMS5003;51715;39.432;-77.518;2023-04-26T14:32:54;18;17;
65012;PMS5003;51715;39.432;-77.518;2023-04-26T14:35:23;21;21;
65012;PMS5003;51715;39.432;-77.518;2023-04-26T14:37:52;23;19;
65012;PMS5003;51715;39.432;-77.518;2023-04-26T14:40:21;17;17;
65012;PMS5003;51715;39.432;-77.518;2023-04-26T14:42:49;13;12;
65012;PMS5003;51715;39.432;-77.518;2023-04-26T14:45:18;22;20;
65012;PMS5003;51715;39.432;-77.518;2023-04-26T14:47:46;18;16;
65012;PMS5003;51715;39.432;-77.518;2023-04-26T14:50:14;16;16;
65012;PMS5003;51715;39.432;-77.518;2023-04-26T14:52:43;19;17;
65012;PMS5003;51715;39.432;-77.518;2023-04-26T14:55:15;23;20;
65012;PMS5003;51715;39.432;-77.518;2023-04-26T14:57:45;23;21;
65012;PMS5003;51715;39.432;-77.518;2023-04-26T15:00:13;13;13;
65012;PMS5003;51715;39.432;-77.518;2023-04-26T15:02:42;20;18;
65012;PMS5003;51715;39.432;-77.518;2023-04-26T15:05:11;18;16;
65012;PMS5003;51715;39.432;-77.518;2023-04-26T15:07:41;16;14;
65012;PMS5003;51715;39.432;-77.518;2023-04-26T15:10:10;22;17;
65012;PMS5003;51715;39.432;-77.518;2023-04-26T15:12:38;19;16;
65012;PMS5003;51715;39.432;-77.518;2023-04-26T15:15:07;17;13;
65012;PMS5003;51715;39.432;-77.518;2023-04-26T15:17:36;17;16;
65012;PMS5003;51715;39.432;-77.518;2023-04-26T15:20:04;17;17;
65012;PMS5003;51715;39.432;-77.518;2023-04-26T15:22:34;15;14;
65012;PMS5003;51715;39.432;-77.518;2023-04-26T15:25:04;12;12;
65012;PMS5003;51715;39.432;-77.518;2023-04-26T15:27:34;12;12;
65012;PMS5003;51715;39.432;-77.518;2023-04-26T15:30:04;15;15;
65012;PMS5003;51715;39.432;-77.518;2023-04-26T15:32:34;10;10;
65012;PMS5003;51715;39.432;-77.518;2023-04-26T15:35:02;14;13;
65012;PMS5003;51715;39.432;-77.518;2023-04-26T15:37:31;12;12;
65012;PMS5003;51715;39.432;-77.518;2023-04-26T15:40:02;11;11;
65012;PMS5003;51715;39.432;-77.518;2023-04-26T15:42:32;10;10;
65012;PMS5003;51715;39.432;-77.518;2023-04-26T15:45:01;12;12;
65012;PMS5003;51715;39.432;-77.518;2023-04-26T15:47:30;13;11;
65012;PMS5003;51715;39.432;-77.518;2023-04-26T15:50:00;14;14;
65012;PMS5003;51715;39.432;-77.518;2023-04-26T15:52:29;12;12;
65012;PMS5003;51715;39.432;-77.518;2023-04-26T15:54:59;15;15;
65012;PMS5003;51715;39.432;-77.518;2023-04-26T15:57:28;14;11;
65012;PMS5003;51715;39.432;-77.518;2023-04-26T15:59:58;11;11;
65012;PMS5003;51715;39.432;-77.518;2023-04-26T16:02:26;10;9;
65012;PMS5003;51715;39.432;-77.518;2023-04-26T16:04:54;11;7;
65012;PMS5003;51715;39.432;-77.518;2023-04-26T16:07:23;12;11;
65012;PMS5003;51715;39.432;-77.518;2023-04-26T16:09:52;11;11;